sensor_id;sensor_type;location;lat;lon;timestamp;P1;durP1;ratioP1;P2;durP2;ratioP2
35540;SDS011;21650;48.840;9.162;2022-12-18T00:01:24;62.07;;;24.73;;
35540;SDS011;21650;48.840;9.162;2022-12-18T00:03:52;56.13;;;24.93;;
35540;SDS011;21650;48.840;9.162;2022-12-18T00:06:19;56.40;;;26.40;;
35540;SDS011;21650;48.840;9.162;2022-12-18T00:08:46;55.73;;;27.43;;
35540;SDS011;21650;48.840;9.162;2022-12-18T00:11:16;59.60;;;26.30;;
35540;SDS011;21650;48.840;9.162;2022-12-18T00:13:43;55.67;;;25.47;;
35540;SDS011;21650;48.840;9.162;2022-12-18T00:16:10;56.50;;;26.27;;
35540;SDS011;21650;48.840;9.162;2022-12-18T00:18:38;57.10;;;25.10;;
35540;SDS011;21650;48.840;9.162;2022-12-18T00:21:06;56.33;;;27.97;;
35540;SDS011;21650;48.840;9.162;2022-12-18T00:23:33;55.70;;;25.73;;
35540;SDS011;21650;48.840;9.162;2022-12-18T00:26:01;68.60;;;28.83;;
35540;SDS011;21650;48.840;9.162;2022-12-18T00:28:31;52.20;;;25.90;;
35540;SDS011;21650;48.840;9.162;2022-12-18T00:31:01;55.60;;;25.33;;
35540;SDS011;21650;48.840;9.162;2022-12-18T00:33:31;64.33;;;27.23;;
35540;SDS011;21650;48.840;9.162;2022-12-18T00:36:04;69.03;;;27.43;;
35540;SDS011;21650;48.840;9.162;2022-12-18T00:38:51;63.07;;;27.83;;
35540;SDS011;21650;48.840;9.162;2022-12-18T00:41:18;61.17;;;26.87;;
35540;SDS011;21650;48.840;9.162;2022-12-18T00:44:03;59.73;;;25.07;;
35540;SDS011;21650;48.840;9.162;2022-12-18T00:46:29;68.73;;;27.07;;
35540;SDS011;21650;48.840;9.162;2022-12-18T00:48:54;67.53;;;27.80;;
35540;SDS011;21650;48.840;9.162;2022-12-18T00:51:20;59.53;;;26.63;;
35540;SDS011;21650;48.840;9.162;2022-12-18T00:53:46;67.73;;;27.60;;
35540;SDS011;21650;48.840;9.162;2022-12-18T00:56:11;57.83;;;26.43;;
35540;SDS011;21650;48.840;9.162;2022-12-18T00:58:37;59.87;;;24.53;;
35540;SDS011;21650;48.840;9.162;2022-12-18T01:01:05;54.00;;;27.13;;
35540;SDS011;21650;48.840;9.162;2022-12-18T01:03:31;52.07;;;25.53;;
35540;SDS011;21650;48.840;9.162;2022-12-18T01:05:57;58.70;;;25.47;;
35540;SDS011;21650;48.840;9.162;2022-12-18T01:08:23;58.50;;;27.63;;
35540;SDS011;21650;48.840;9.162;2022-12-18T01:10:48;50.10;;;24.97;;
35540;SDS011;21650;48.840;9.162;2022-12-18T01:13:14;58.37;;;25.80;;
35540;SDS011;21650;48.840;9.162;2022-12-18T01:15:47;52.33;;;25.17;;
35540;SDS011;21650;48.840;9.162;2022-12-18T01:18:14;67.63;;;26.70;;
35540;SDS011;21650;48.840;9.162;2022-12-18T01:20:39;58.67;;;25.63;;
35540;SDS011;21650;48.840;9.162;2022-12-18T01:23:05;61.70;;;26.87;;
35540;SDS011;21650;48.840;9.162;2022-12-18T01:25:31;60.97;;;24.93;;
35540;SDS011;21650;48.840;9.162;2022-12-18T01:27:56;58.47;;;25.53;;
35540;SDS011;21650;48.840;9.162;2022-12-18T01:30:22;65.33;;;26.87;;
35540;SDS011;21650;48.840;9.162;2022-12-18T01:32:48;59.67;;;26.43;;
35540;SDS011;21650;48.840;9.162;2022-12-18T01:35:13;62.03;;;26.07;;
35540;SDS011;21650;48.840;9.162;2022-12-18T01:37:39;63.53;;;26.30;;
35540;SDS011;21650;48.840;9.162;2022-12-18T01:40:05;68.77;;;26.90;;
35540;SDS011;21650;48.840;9.162;2022-12-18T01:42:31;63.10;;;27.87;;
35540;SDS011;21650;48.840;9.162;2022-12-18T01:47:45;53.07;;;24.90;;
35540;SDS011;21650;48.840;9.162;2022-12-18T01:50:23;57.43;;;25.40;;
35540;SDS011;21650;48.840;9.162;2022-12-18T01:52:50;58.67;;;25.20;;
35540;SDS011;21650;48.840;9.162;2022-12-18T01:55:19;55.07;;;25.47;;
35540;SDS011;21650;48.840;9.162;2022-12-18T01:57:47;56.87;;;24.77;;
35540;SDS011;21650;48.840;9.162;2022-12-18T02:00:18;64.43;;;26.30;;
35540;SDS011;21650;48.840;9.162;2022-12-18T02:02:45;52.67;;;25.57;;
35540;SDS011;21650;48.840;9.162;2022-12-18T02:05:12;50.77;;;23.50;;
35540;SDS011;21650;48.840;9.162;2022-12-18T02:11:23;59.83;;;24.73;;
35540;SDS011;21650;48.840;9.162;2022-12-18T02:18:42;56.13;;;25.67;;
35540;SDS011;21650;48.840;9.162;2022-12-18T02:21:18;49.77;;;21.93;;
35540;SDS011;21650;48.840;9.162;2022-12-18T02:26:55;52.20;;;21.87;;
35540;SDS011;21650;48.840;9.162;2022-12-18T02:29:24;61.83;;;25.07;;
35540;SDS011;21650;48.840;9.162;2022-12-18T02:31:53;49.07;;;22.90;;
35540;SDS011;21650;48.840;9.162;2022-12-18T02:34:23;57.20;;;24.13;;
35540;SDS011;21650;48.840;9.162;2022-12-18T02:36:53;45.83;;;21.87;;
35540;SDS011;21650;48.840;9.162;2022-12-18T02:39:19;48.93;;;23.17;;
35540;SDS011;21650;48.840;9.162;2022-12-18T02:41:48;56.90;;;22.90;;
35540;SDS011;21650;48.840;9.162;2022-12-18T02:44:15;50.53;;;22.70;;
35540;SDS011;21650;48.840;9.162;2022-12-18T02:46:42;54.00;;;24.17;;
35540;SDS011;21650;48.840;9.162;2022-12-18T02:54:52;51.00;;;22.63;;
35540;SDS011;21650;48.840;9.162;2022-12-18T02:57:46;47.03;;;22.27;;
35540;SDS011;21650;48.840;9.162;2022-12-18T03:00:23;47.47;;;20.63;;
35540;SDS011;21650;48.840;9.162;2022-12-18T03:02:59;49.63;;;22.20;;
35540;SDS011;21650;48.840;9.162;2022-12-18T03:05:43;51.43;;;20.87;;
35540;SDS011;21650;48.840;9.162;2022-12-18T03:08:24;46.87;;;20.80;;
35540;SDS011;21650;48.840;9.162;2022-12-18T03:11:29;48.07;;;22.47;;
35540;SDS011;21650;48.840;9.162;2022-12-18T03:14:08;49.57;;;21.30;;
35540;SDS011;21650;48.840;9.162;2022-12-18T03:16:36;48.23;;;22.63;;
35540;SDS011;21650;48.840;9.162;2022-12-18T03:19:04;53.03;;;21.70;;
35540;SDS011;21650;48.840;9.162;2022-12-18T03:21:37;50.67;;;22.63;;
35540;SDS011;21650;48.840;9.162;2022-12-18T03:24:07;45.53;;;22.50;;
35540;SDS011;21650;48.840;9.162;2022-12-18T03:26:35;54.43;;;22.50;;
35540;SDS011;21650;48.840;9.162;2022-12-18T03:29:08;49.77;;;21.17;;
35540;SDS011;21650;48.840;9.162;2022-12-18T03:31:40;49.73;;;20.57;;
35540;SDS011;21650;48.840;9.162;2022-12-18T03:34:14;48.57;;;21.97;;
35540;SDS011;21650;48.840;9.162;2022-12-18T03:36:44;50.23;;;22.07;;
35540;SDS011;21650;48.840;9.162;2022-12-18T03:39:10;50.57;;;23.50;;
35540;SDS011;21650;48.840;9.162;2022-12-18T03:41:53;51.10;;;23.30;;
35540;SDS011;21650;48.840;9.162;2022-12-18T03:44:29;54.97;;;21.33;;
35540;SDS011;21650;48.840;9.162;2022-12-18T03:47:09;48.50;;;21.40;;
35540;SDS011;21650;48.840;9.162;2022-12-18T03:52:38;46.77;;;18.33;;
35540;SDS011;21650;48.840;9.162;2022-12-18T03:55:11;52.13;;;19.83;;
35540;SDS011;21650;48.840;9.162;2022-12-18T03:57:37;42.67;;;18.57;;
35540;SDS011;21650;48.840;9.162;2022-12-18T04:00:06;49.37;;;19.67;;
35540;SDS011;21650;48.840;9.162;2022-12-18T04:02:38;46.67;;;22.43;;
35540;SDS011;21650;48.840;9.162;2022-12-18T04:05:08;49.30;;;20.10;;
35540;SDS011;21650;48.840;9.162;2022-12-18T04:07:35;47.73;;;22.77;;
35540;SDS011;21650;48.840;9.162;2022-12-18T04:10:03;48.93;;;20.33;;
35540;SDS011;21650;48.840;9.162;2022-12-18T04:12:31;49.50;;;20.53;;
35540;SDS011;21650;48.840;9.162;2022-12-18T04:14:57;49.17;;;19.77;;
35540;SDS011;21650;48.840;9.162;2022-12-18T04:17:23;55.73;;;22.07;;
35540;SDS011;21650;48.840;9.162;2022-12-18T04:19:49;49.40;;;21.13;;
35540;SDS011;21650;48.840;9.162;2022-12-18T04:22:15;45.33;;;21.57;;
35540;SDS011;21650;48.840;9.162;2022-12-18T04:24:40;52.07;;;21.53;;
35540;SDS011;21650;48.840;9.162;2022-12-18T04:27:06;40.57;;;20.00;;
35540;SDS011;21650;48.840;9.162;2022-12-18T04:29:31;38.03;;;18.87;;
35540;SDS011;21650;48.840;9.162;2022-12-18T04:31:57;42.20;;;19.73;;
35540;SDS011;21650;48.840;9.162;2022-12-18T04:34:23;46.00;;;19.97;;
35540;SDS011;21650;48.840;9.162;2022-12-18T04:36:48;44.87;;;18.77;;
35540;SDS011;21650;48.840;9.162;2022-12-18T04:39:14;42.17;;;20.00;;
35540;SDS011;21650;48.840;9.162;2022-12-18T04:41:42;46.53;;;20.43;;
35540;SDS011;21650;48.840;9.162;2022-12-18T04:44:08;47.83;;;20.17;;
35540;SDS011;21650;48.840;9.162;2022-12-18T04:46:34;45.87;;;19.17;;
35540;SDS011;21650;48.840;9.162;2022-12-18T04:48:59;48.83;;;20.77;;
35540;SDS011;21650;48.840;9.162;2022-12-18T04:51:25;42.60;;;20.63;;
35540;SDS011;21650;48.840;9.162;2022-12-18T04:53:51;47.23;;;22.50;;
35540;SDS011;21650;48.840;9.162;2022-12-18T04:56:16;46.77;;;19.40;;
35540;SDS011;21650;48.840;9.162;2022-12-18T04:58:43;47.20;;;18.73;;
35540;SDS011;21650;48.840;9.162;2022-12-18T05:01:09;47.83;;;21.23;;
35540;SDS011;21650;48.840;9.162;2022-12-18T05:03:36;41.10;;;19.13;;
35540;SDS011;21650;48.840;9.162;2022-12-18T05:06:03;47.93;;;21.67;;
35540;SDS011;21650;48.840;9.162;2022-12-18T05:08:29;42.17;;;20.40;;
35540;SDS011;21650;48.840;9.162;2022-12-18T05:11:02;45.70;;;19.50;;
35540;SDS011;21650;48.840;9.162;2022-12-18T05:13:30;44.67;;;18.43;;
35540;SDS011;21650;48.840;9.162;2022-12-18T05:15:56;42.83;;;19.70;;
35540;SDS011;21650;48.840;9.162;2022-12-18T05:18:22;42.80;;;19.20;;
35540;SDS011;21650;48.840;9.162;2022-12-18T05:20:52;47.93;;;19.93;;
35540;SDS011;21650;48.840;9.162;2022-12-18T05:23:18;37.90;;;17.77;;
35540;SDS011;21650;48.840;9.162;2022-12-18T05:28:18;40.83;;;20.77;;
35540;SDS011;21650;48.840;9.162;2022-12-18T05:30:47;42.13;;;19.93;;
35540;SDS011;21650;48.840;9.162;2022-12-18T05:33:17;46.10;;;18.90;;
35540;SDS011;21650;48.840;9.162;2022-12-18T05:35:43;41.53;;;18.50;;
35540;SDS011;21650;48.840;9.162;2022-12-18T05:38:09;38.57;;;19.60;;
35540;SDS011;21650;48.840;9.162;2022-12-18T05:40:34;44.00;;;18.80;;
35540;SDS011;21650;48.840;9.162;2022-12-18T05:43:04;50.77;;;19.87;;
35540;SDS011;21650;48.840;9.162;2022-12-18T05:45:30;42.57;;;18.90;;
35540;SDS011;21650;48.840;9.162;2022-12-18T05:47:55;47.37;;;19.17;;
35540;SDS011;21650;48.840;9.162;2022-12-18T05:50:21;49.17;;;20.23;;
35540;SDS011;21650;48.840;9.162;2022-12-18T05:52:47;52.80;;;21.83;;
35540;SDS011;21650;48.840;9.162;2022-12-18T05:55:12;43.37;;;19.33;;
35540;SDS011;21650;48.840;9.162;2022-12-18T05:57:38;38.90;;;17.93;;
35540;SDS011;21650;48.840;9.162;2022-12-18T06:00:03;48.33;;;20.50;;
35540;SDS011;21650;48.840;9.162;2022-12-18T06:02:30;45.73;;;20.70;;
35540;SDS011;21650;48.840;9.162;2022-12-18T06:04:55;46.23;;;20.10;;
35540;SDS011;21650;48.840;9.162;2022-12-18T06:07:21;40.47;;;18.53;;
35540;SDS011;21650;48.840;9.162;2022-12-18T06:09:46;44.77;;;18.70;;
35540;SDS011;21650;48.840;9.162;2022-12-18T06:12:12;37.53;;;17.60;;
35540;SDS011;21650;48.840;9.162;2022-12-18T06:14:38;35.13;;;18.40;;
35540;SDS011;21650;48.840;9.162;2022-12-18T06:17:03;48.00;;;20.37;;
35540;SDS011;21650;48.840;9.162;2022-12-18T06:19:29;45.87;;;20.30;;
35540;SDS011;21650;48.840;9.162;2022-12-18T06:21:55;46.60;;;18.93;;
35540;SDS011;21650;48.840;9.162;2022-12-18T06:24:22;45.57;;;20.17;;
35540;SDS011;21650;48.840;9.162;2022-12-18T06:26:48;41.63;;;17.57;;
35540;SDS011;21650;48.840;9.162;2022-12-18T06:29:13;44.37;;;19.23;;
35540;SDS011;21650;48.840;9.162;2022-12-18T06:31:39;44.10;;;17.90;;
35540;SDS011;21650;48.840;9.162;2022-12-18T06:34:05;35.07;;;16.13;;
35540;SDS011;21650;48.840;9.162;2022-12-18T06:36:31;38.33;;;18.43;;
35540;SDS011;21650;48.840;9.162;2022-12-18T06:38:56;32.50;;;16.57;;
35540;SDS011;21650;48.840;9.162;2022-12-18T06:41:22;42.47;;;18.33;;
35540;SDS011;21650;48.840;9.162;2022-12-18T06:43:48;40.97;;;18.13;;
35540;SDS011;21650;48.840;9.162;2022-12-18T06:46:14;38.50;;;17.73;;
35540;SDS011;21650;48.840;9.162;2022-12-18T06:48:40;41.07;;;17.37;;
35540;SDS011;21650;48.840;9.162;2022-12-18T06:51:06;36.17;;;19.23;;
35540;SDS011;21650;48.840;9.162;2022-12-18T06:53:32;41.30;;;18.00;;
35540;SDS011;21650;48.840;9.162;2022-12-18T06:58:27;39.53;;;18.33;;
35540;SDS011;21650;48.840;9.162;2022-12-18T07:00:53;45.80;;;19.83;;
35540;SDS011;21650;48.840;9.162;2022-12-18T07:03:18;40.50;;;21.03;;
35540;SDS011;21650;48.840;9.162;2022-12-18T07:05:44;39.23;;;18.70;;
35540;SDS011;21650;48.840;9.162;2022-12-18T07:08:10;33.50;;;17.20;;
35540;SDS011;21650;48.840;9.162;2022-12-18T07:10:42;38.00;;;18.00;;
35540;SDS011;21650;48.840;9.162;2022-12-18T07:13:08;41.50;;;19.00;;
35540;SDS011;21650;48.840;9.162;2022-12-18T07:15:34;37.37;;;17.83;;
35540;SDS011;21650;48.840;9.162;2022-12-18T07:17:59;41.83;;;16.83;;
35540;SDS011;21650;48.840;9.162;2022-12-18T07:20:25;44.70;;;19.47;;
35540;SDS011;21650;48.840;9.162;2022-12-18T07:22:50;38.13;;;17.60;;
35540;SDS011;21650;48.840;9.162;2022-12-18T07:25:16;42.50;;;20.53;;
35540;SDS011;21650;48.840;9.162;2022-12-18T07:27:42;41.70;;;19.43;;
35540;SDS011;21650;48.840;9.162;2022-12-18T07:30:07;33.60;;;17.30;;
35540;SDS011;21650;48.840;9.162;2022-12-18T07:32:34;42.87;;;18.50;;
35540;SDS011;21650;48.840;9.162;2022-12-18T07:34:59;35.83;;;16.60;;
35540;SDS011;21650;48.840;9.162;2022-12-18T07:37:25;38.37;;;18.60;;
35540;SDS011;21650;48.840;9.162;2022-12-18T07:39:51;43.50;;;18.97;;
35540;SDS011;21650;48.840;9.162;2022-12-18T07:42:16;39.57;;;18.77;;
35540;SDS011;21650;48.840;9.162;2022-12-18T07:45:00;44.60;;;18.13;;
35540;SDS011;21650;48.840;9.162;2022-12-18T07:47:26;39.17;;;18.77;;
35540;SDS011;21650;48.840;9.162;2022-12-18T07:49:55;33.23;;;17.47;;
35540;SDS011;21650;48.840;9.162;2022-12-18T07:52:21;40.97;;;16.53;;
35540;SDS011;21650;48.840;9.162;2022-12-18T07:54:46;50.00;;;20.03;;
35540;SDS011;21650;48.840;9.162;2022-12-18T07:57:14;49.77;;;19.37;;
35540;SDS011;21650;48.840;9.162;2022-12-18T07:59:40;45.93;;;19.83;;
35540;SDS011;21650;48.840;9.162;2022-12-18T08:02:06;38.77;;;16.77;;
35540;SDS011;21650;48.840;9.162;2022-12-18T08:04:31;42.23;;;18.67;;
35540;SDS011;21650;48.840;9.162;2022-12-18T08:06:57;43.83;;;19.73;;
35540;SDS011;21650;48.840;9.162;2022-12-18T08:09:22;42.60;;;20.57;;
35540;SDS011;21650;48.840;9.162;2022-12-18T08:11:48;41.83;;;17.97;;
35540;SDS011;21650;48.840;9.162;2022-12-18T08:14:14;43.53;;;19.73;;
35540;SDS011;21650;48.840;9.162;2022-12-18T08:16:39;36.53;;;16.77;;
35540;SDS011;21650;48.840;9.162;2022-12-18T08:19:05;37.57;;;19.07;;
35540;SDS011;21650;48.840;9.162;2022-12-18T08:21:31;42.13;;;19.20;;
35540;SDS011;21650;48.840;9.162;2022-12-18T08:23:58;51.03;;;19.27;;
35540;SDS011;21650;48.840;9.162;2022-12-18T08:26:25;45.37;;;20.23;;
35540;SDS011;21650;48.840;9.162;2022-12-18T08:28:53;38.43;;;18.33;;
35540;SDS011;21650;48.840;9.162;2022-12-18T08:31:20;46.10;;;19.77;;
35540;SDS011;21650;48.840;9.162;2022-12-18T08:33:47;43.30;;;19.97;;
35540;SDS011;21650;48.840;9.162;2022-12-18T08:36:14;44.90;;;19.90;;
35540;SDS011;21650;48.840;9.162;2022-12-18T08:38:40;40.20;;;18.47;;
35540;SDS011;21650;48.840;9.162;2022-12-18T08:41:07;39.23;;;17.73;;
35540;SDS011;21650;48.840;9.162;2022-12-18T08:43:34;41.30;;;20.20;;
35540;SDS011;21650;48.840;9.162;2022-12-18T08:46:19;45.60;;;18.10;;
35540;SDS011;21650;48.840;9.162;2022-12-18T08:48:46;37.67;;;18.60;;
35540;SDS011;21650;48.840;9.162;2022-12-18T08:51:12;36.57;;;18.27;;
35540;SDS011;21650;48.840;9.162;2022-12-18T08:53:38;50.30;;;24.40;;
35540;SDS011;21650;48.840;9.162;2022-12-18T08:56:04;41.23;;;19.97;;
35540;SDS011;21650;48.840;9.162;2022-12-18T08:58:30;37.90;;;18.87;;
35540;SDS011;21650;48.840;9.162;2022-12-18T09:01:00;38.40;;;19.37;;
35540;SDS011;21650;48.840;9.162;2022-12-18T09:03:26;40.10;;;19.87;;
35540;SDS011;21650;48.840;9.162;2022-12-18T09:05:52;42.43;;;20.33;;
35540;SDS011;21650;48.840;9.162;2022-12-18T09:08:18;41.53;;;19.97;;
35540;SDS011;21650;48.840;9.162;2022-12-18T09:10:44;40.53;;;19.43;;
35540;SDS011;21650;48.840;9.162;2022-12-18T09:13:11;53.17;;;20.10;;
35540;SDS011;21650;48.840;9.162;2022-12-18T09:15:44;46.40;;;22.37;;
35540;SDS011;21650;48.840;9.162;2022-12-18T09:18:11;42.57;;;20.63;;
35540;SDS011;21650;48.840;9.162;2022-12-18T09:20:38;36.63;;;18.47;;
35540;SDS011;21650;48.840;9.162;2022-12-18T09:23:04;44.33;;;18.63;;
35540;SDS011;21650;48.840;9.162;2022-12-18T09:25:30;40.87;;;18.33;;
35540;SDS011;21650;48.840;9.162;2022-12-18T09:27:58;47.17;;;20.70;;
35540;SDS011;21650;48.840;9.162;2022-12-18T09:30:24;44.27;;;18.23;;
35540;SDS011;21650;48.840;9.162;2022-12-18T09:32:50;43.63;;;19.00;;
35540;SDS011;21650;48.840;9.162;2022-12-18T09:35:19;49.37;;;21.80;;
35540;SDS011;21650;48.840;9.162;2022-12-18T09:37:44;47.63;;;20.10;;
35540;SDS011;21650;48.840;9.162;2022-12-18T09:40:16;49.90;;;22.70;;
35540;SDS011;21650;48.840;9.162;2022-12-18T09:42:46;46.07;;;20.80;;
35540;SDS011;21650;48.840;9.162;2022-12-18T09:45:18;42.27;;;19.23;;
35540;SDS011;21650;48.840;9.162;2022-12-18T09:47:44;55.93;;;21.10;;
35540;SDS011;21650;48.840;9.162;2022-12-18T09:52:49;41.20;;;18.07;;
35540;SDS011;21650;48.840;9.162;2022-12-18T09:57:54;40.37;;;19.77;;
35540;SDS011;21650;48.840;9.162;2022-12-18T10:00:24;38.77;;;16.80;;
35540;SDS011;21650;48.840;9.162;2022-12-18T10:02:58;43.13;;;18.73;;
35540;SDS011;21650;48.840;9.162;2022-12-18T10:08:01;41.07;;;18.10;;
35540;SDS011;21650;48.840;9.162;2022-12-18T10:13:41;38.73;;;19.33;;
35540;SDS011;21650;48.840;9.162;2022-12-18T10:16:34;47.40;;;20.00;;
35540;SDS011;21650;48.840;9.162;2022-12-18T10:19:42;39.67;;;17.27;;
35540;SDS011;21650;48.840;9.162;2022-12-18T10:22:24;39.70;;;18.50;;
35540;SDS011;21650;48.840;9.162;2022-12-18T10:28:22;47.63;;;17.83;;
35540;SDS011;21650;48.840;9.162;2022-12-18T10:30:49;45.93;;;19.43;;
35540;SDS011;21650;48.840;9.162;2022-12-18T10:33:16;46.70;;;19.27;;
35540;SDS011;21650;48.840;9.162;2022-12-18T10:35:47;44.47;;;19.97;;
35540;SDS011;21650;48.840;9.162;2022-12-18T10:43:21;44.07;;;19.13;;
35540;SDS011;21650;48.840;9.162;2022-12-18T10:48:27;41.00;;;18.47;;
35540;SDS011;21650;48.840;9.162;2022-12-18T10:50:53;39.70;;;19.53;;
35540;SDS011;21650;48.840;9.162;2022-12-18T10:53:21;38.63;;;18.13;;
35540;SDS011;21650;48.840;9.162;2022-12-18T10:55:49;40.50;;;18.30;;
35540;SDS011;21650;48.840;9.162;2022-12-18T11:03:37;41.50;;;18.03;;
35540;SDS011;21650;48.840;9.162;2022-12-18T11:08:56;43.63;;;20.30;;
35540;SDS011;21650;48.840;9.162;2022-12-18T11:11:29;41.17;;;18.43;;
35540;SDS011;21650;48.840;9.162;2022-12-18T11:16:22;43.70;;;19.40;;
35540;SDS011;21650;48.840;9.162;2022-12-18T11:18:48;47.00;;;20.13;;
35540;SDS011;21650;48.840;9.162;2022-12-18T11:21:14;42.50;;;19.43;;
35540;SDS011;21650;48.840;9.162;2022-12-18T11:23:50;40.70;;;19.27;;
35540;SDS011;21650;48.840;9.162;2022-12-18T11:26:17;43.33;;;19.13;;
35540;SDS011;21650;48.840;9.162;2022-12-18T11:28:44;36.10;;;18.87;;
35540;SDS011;21650;48.840;9.162;2022-12-18T11:31:21;39.87;;;16.77;;
35540;SDS011;21650;48.840;9.162;2022-12-18T11:36:28;43.90;;;18.47;;
35540;SDS011;21650;48.840;9.162;2022-12-18T11:38:58;36.83;;;17.80;;
35540;SDS011;21650;48.840;9.162;2022-12-18T11:41:28;41.13;;;18.00;;
35540;SDS011;21650;48.840;9.162;2022-12-18T11:44:22;39.53;;;16.70;;
35540;SDS011;21650;48.840;9.162;2022-12-18T11:46:53;35.73;;;17.73;;
35540;SDS011;21650;48.840;9.162;2022-12-18T11:49:24;45.87;;;19.20;;
35540;SDS011;21650;48.840;9.162;2022-12-18T11:54:52;41.20;;;17.87;;
35540;SDS011;21650;48.840;9.162;2022-12-18T11:59:54;49.17;;;20.13;;
35540;SDS011;21650;48.840;9.162;2022-12-18T12:02:34;45.93;;;19.73;;
35540;SDS011;21650;48.840;9.162;2022-12-18T12:13:52;41.70;;;18.33;;
35540;SDS011;21650;48.840;9.162;2022-12-18T12:19:34;36.83;;;17.47;;
35540;SDS011;21650;48.840;9.162;2022-12-18T12:25:21;42.10;;;19.93;;
35540;SDS011;21650;48.840;9.162;2022-12-18T12:36:17;40.47;;;17.90;;
35540;SDS011;21650;48.840;9.162;2022-12-18T12:38:55;40.80;;;18.53;;
35540;SDS011;21650;48.840;9.162;2022-12-18T12:41:26;40.30;;;17.80;;
35540;SDS011;21650;48.840;9.162;2022-12-18T12:44:20;44.10;;;17.83;;
35540;SDS011;21650;48.840;9.162;2022-12-18T12:46:51;43.13;;;17.73;;
35540;SDS011;21650;48.840;9.162;2022-12-18T12:49:21;41.87;;;19.23;;
35540;SDS011;21650;48.840;9.162;2022-12-18T12:51:58;40.60;;;16.90;;
35540;SDS011;21650;48.840;9.162;2022-12-18T12:54:24;42.73;;;18.67;;
35540;SDS011;21650;48.840;9.162;2022-12-18T12:57:09;38.53;;;17.53;;
35540;SDS011;21650;48.840;9.162;2022-12-18T13:02:22;41.13;;;19.00;;
35540;SDS011;21650;48.840;9.162;2022-12-18T13:07:32;39.07;;;18.97;;
35540;SDS011;21650;48.840;9.162;2022-12-18T13:12:54;37.40;;;17.50;;
35540;SDS011;21650;48.840;9.162;2022-12-18T13:20:34;48.13;;;20.93;;
35540;SDS011;21650;48.840;9.162;2022-12-18T13:25:52;47.03;;;19.70;;
35540;SDS011;21650;48.840;9.162;2022-12-18T13:31:08;38.97;;;18.30;;
35540;SDS011;21650;48.840;9.162;2022-12-18T13:33:38;45.67;;;17.50;;
35540;SDS011;21650;48.840;9.162;2022-12-18T13:41:37;41.53;;;19.50;;
35540;SDS011;21650;48.840;9.162;2022-12-18T13:46:50;46.30;;;19.30;;
35540;SDS011;21650;48.840;9.162;2022-12-18T13:52:15;39.93;;;17.93;;
35540;SDS011;21650;48.840;9.162;2022-12-18T13:55:00;38.30;;;17.47;;
35540;SDS011;21650;48.840;9.162;2022-12-18T13:57:31;40.50;;;18.87;;
35540;SDS011;21650;48.840;9.162;2022-12-18T14:02:46;41.27;;;18.17;;
35540;SDS011;21650;48.840;9.162;2022-12-18T14:05:25;38.37;;;17.50;;
35540;SDS011;21650;48.840;9.162;2022-12-18T14:07:52;39.33;;;19.43;;
35540;SDS011;21650;48.840;9.162;2022-12-18T14:10:19;41.80;;;17.93;;
35540;SDS011;21650;48.840;9.162;2022-12-18T14:12:47;34.20;;;17.10;;
35540;SDS011;21650;48.840;9.162;2022-12-18T14:17:52;42.30;;;19.27;;
35540;SDS011;21650;48.840;9.162;2022-12-18T14:20:20;59.03;;;25.70;;
35540;SDS011;21650;48.840;9.162;2022-12-18T14:22:46;49.33;;;21.90;;
35540;SDS011;21650;48.840;9.162;2022-12-18T14:25:18;38.70;;;18.83;;
35540;SDS011;21650;48.840;9.162;2022-12-18T14:27:50;39.70;;;18.33;;
35540;SDS011;21650;48.840;9.162;2022-12-18T14:35:29;50.77;;;21.17;;
35540;SDS011;21650;48.840;9.162;2022-12-18T14:41:05;48.87;;;19.37;;
35540;SDS011;21650;48.840;9.162;2022-12-18T14:43:32;41.77;;;20.17;;
35540;SDS011;21650;48.840;9.162;2022-12-18T14:46:00;42.33;;;20.73;;
35540;SDS011;21650;48.840;9.162;2022-12-18T14:51:15;45.80;;;20.97;;
35540;SDS011;21650;48.840;9.162;2022-12-18T14:53:56;52.70;;;23.27;;
35540;SDS011;21650;48.840;9.162;2022-12-18T14:56:26;56.13;;;24.90;;
35540;SDS011;21650;48.840;9.162;2022-12-18T14:59:00;52.73;;;22.87;;
35540;SDS011;21650;48.840;9.162;2022-12-18T15:01:47;44.90;;;23.00;;
35540;SDS011;21650;48.840;9.162;2022-12-18T15:04:34;53.80;;;23.23;;
35540;SDS011;21650;48.840;9.162;2022-12-18T15:09:39;50.00;;;21.50;;
35540;SDS011;21650;48.840;9.162;2022-12-18T15:12:19;54.40;;;25.53;;
35540;SDS011;21650;48.840;9.162;2022-12-18T15:14:51;58.93;;;23.67;;
35540;SDS011;21650;48.840;9.162;2022-12-18T15:17:18;50.17;;;23.10;;
35540;SDS011;21650;48.840;9.162;2022-12-18T15:19:46;53.17;;;22.67;;
35540;SDS011;21650;48.840;9.162;2022-12-18T15:22:21;50.63;;;22.73;;
35540;SDS011;21650;48.840;9.162;2022-12-18T15:24:55;50.90;;;23.97;;
35540;SDS011;21650;48.840;9.162;2022-12-18T15:27:27;49.93;;;24.70;;
35540;SDS011;21650;48.840;9.162;2022-12-18T15:32:37;58.97;;;24.73;;
35540;SDS011;21650;48.840;9.162;2022-12-18T15:37:36;49.07;;;22.50;;
35540;SDS011;21650;48.840;9.162;2022-12-18T15:40:05;61.13;;;24.47;;
35540;SDS011;21650;48.840;9.162;2022-12-18T15:42:33;50.70;;;23.13;;
35540;SDS011;21650;48.840;9.162;2022-12-18T15:45:17;55.40;;;25.90;;
35540;SDS011;21650;48.840;9.162;2022-12-18T15:47:43;53.87;;;25.77;;
35540;SDS011;21650;48.840;9.162;2022-12-18T15:50:09;58.87;;;23.43;;
35540;SDS011;21650;48.840;9.162;2022-12-18T15:52:45;56.17;;;25.73;;
35540;SDS011;21650;48.840;9.162;2022-12-18T15:55:21;51.80;;;23.27;;
35540;SDS011;21650;48.840;9.162;2022-12-18T15:58:07;52.50;;;24.80;;
35540;SDS011;21650;48.840;9.162;2022-12-18T16:00:35;55.73;;;25.80;;
35540;SDS011;21650;48.840;9.162;2022-12-18T16:03:03;54.40;;;24.57;;
35540;SDS011;21650;48.840;9.162;2022-12-18T16:05:29;52.23;;;24.93;;
35540;SDS011;21650;48.840;9.162;2022-12-18T16:07:55;52.50;;;24.40;;
35540;SDS011;21650;48.840;9.162;2022-12-18T16:10:21;55.87;;;24.40;;
35540;SDS011;21650;48.840;9.162;2022-12-18T16:12:48;50.03;;;22.53;;
35540;SDS011;21650;48.840;9.162;2022-12-18T16:15:14;53.67;;;23.07;;
35540;SDS011;21650;48.840;9.162;2022-12-18T16:17:41;50.43;;;22.17;;
35540;SDS011;21650;48.840;9.162;2022-12-18T16:20:15;46.40;;;21.73;;
35540;SDS011;21650;48.840;9.162;2022-12-18T16:22:46;53.30;;;23.23;;
35540;SDS011;21650;48.840;9.162;2022-12-18T16:25:17;54.20;;;21.97;;
35540;SDS011;21650;48.840;9.162;2022-12-18T16:27:44;54.73;;;23.07;;
35540;SDS011;21650;48.840;9.162;2022-12-18T16:30:17;52.27;;;22.10;;
35540;SDS011;21650;48.840;9.162;2022-12-18T16:32:44;55.80;;;22.17;;
35540;SDS011;21650;48.840;9.162;2022-12-18T16:35:11;50.73;;;23.27;;
35540;SDS011;21650;48.840;9.162;2022-12-18T16:37:38;52.07;;;23.87;;
35540;SDS011;21650;48.840;9.162;2022-12-18T16:40:10;47.23;;;22.80;;
35540;SDS011;21650;48.840;9.162;2022-12-18T16:42:38;53.83;;;24.00;;
35540;SDS011;21650;48.840;9.162;2022-12-18T16:45:05;53.80;;;24.03;;
35540;SDS011;21650;48.840;9.162;2022-12-18T16:47:33;51.33;;;24.17;;
35540;SDS011;21650;48.840;9.162;2022-12-18T16:50:00;51.17;;;22.57;;
35540;SDS011;21650;48.840;9.162;2022-12-18T16:52:27;55.00;;;22.10;;
35540;SDS011;21650;48.840;9.162;2022-12-18T16:54:54;46.17;;;22.10;;
35540;SDS011;21650;48.840;9.162;2022-12-18T16:57:20;54.40;;;24.10;;
35540;SDS011;21650;48.840;9.162;2022-12-18T16:59:46;50.83;;;23.67;;